首页
METAR-TAF:

METAR-TAF

机场 :

Statesboro-Bulloch County Airport

Statesboro, 喬治亞, 美国

纬度: 32-28-59N, 经度: 081-44-14W, 海拔: 57米

当前天气观测

该预报发布于32分钟前的16:50 UTC
风速3节,风向西转西北
温度 12°C
湿度 38%
气压 1025 hPa
能見度: 16.1公里
天空无云

METAR: KTBR 121650Z AUTO 29003KT 10SM CLR 12/M02 A3026 RMK AO2 T01221024

时间: 12:22 (17:22 UTC)


TAF: 丢失

超过4000个机场的气象观测和天气预报(METAR&TAF报告)。

可查询的气象台以黄色和红色小点在地图上表示。

将鼠标移到小点上方,可查看气象台名称。

然后点击查看天气观测和预报。

如需切换地图:点击带黑十字的绿色按钮放大地图;点击带横线的绿色按钮缩小地图;或者点击绿色箭头查看邻近地区的地图。


METAR-TAF: